CZFN/ZFN METAR and TAF weather

Enter ICAO airport designator
Station Type Date Time Source
CZFN METAR 2020/07/03 23:00 UTC NOAA

CZFN 032300Z 10005KT 070V160 15SM FEW030 SCT170 18/06 A2998 RMK CU2CC2 LAST STFD OBS/ NEXT 061500 UTC SLP156 DENSITY ALT 700FT


Station Type Date Time Source
CZFN Decoded METAR 2020/07/03 23:00 UTC NOAA

Fort Norman Airport, Canada (CZFN) 64-55N 125-34W
Jul 03, 2020 - 07:00 PM EDT / 2020.07.03 2300 UTC
Wind: from the E (100 degrees) at 6 MPH (5 KT) (direction variable):0
Visibility: 15 mile(s):0
Sky conditions: partly cloudy
Temperature: 64 F (18 C)
Dew Point: 42 F (6 C)
Relative Humidity: 45%
Pressure (altimeter): 29.98 in. Hg (1015 hPa)
ob: CZFN 032300Z 10005KT 070V160 15SM FEW030 SCT170 18/06 A2998 RMK CU2CC2 LAST STFD OBS/ NEXT 061500 UTC SLP156 DENSITY ALT 700FT
cycle: 23

Station Type Date Time Source
CZFN TAF UTC NOAA

Error!

Example: see airport list